createdAt,value
2019-03-16T00:02:00.332Z,8.33
2019-03-16T00:04:33.082Z,8.38
2019-03-16T00:07:05.498Z,8.41
2019-03-16T00:09:38.656Z,8.47
2019-03-16T00:12:13.314Z,8.50
2019-03-16T00:14:45.915Z,8.53
2019-03-16T00:17:23.221Z,8.54
2019-03-16T00:19:56.610Z,8.56
2019-03-16T00:22:28.985Z,8.55
2019-03-16T00:25:02.342Z,8.54
2019-03-16T00:27:38.925Z,8.53
2019-03-16T00:30:14.766Z,8.52
2019-03-16T00:32:47.811Z,8.51
2019-03-16T00:35:22.592Z,8.53
2019-03-16T00:37:54.837Z,8.56
2019-03-16T00:40:27.910Z,8.64
2019-03-16T00:43:02.726Z,8.66
2019-03-16T00:45:37.811Z,8.65
2019-03-16T00:48:10.836Z,8.64
2019-03-16T00:50:46.479Z,8.65
2019-03-16T00:53:18.748Z,8.62
2019-03-16T00:55:52.107Z,8.55
2019-03-16T00:58:24.810Z,8.53
2019-03-16T01:00:57.139Z,8.53
2019-03-16T01:03:29.585Z,8.47
2019-03-16T01:06:03.474Z,8.39
2019-03-16T01:08:36.399Z,8.31
2019-03-16T01:11:08.818Z,8.24
2019-03-16T01:13:41.437Z,8.16
2019-03-16T01:16:13.825Z,8.13
2019-03-16T01:18:46.185Z,8.09
2019-03-16T01:21:19.683Z,8.08
2019-03-16T01:23:52.651Z,8.04
2019-03-16T01:26:25.047Z,7.99
2019-03-16T01:28:57.774Z,7.94
2019-03-16T01:31:30.174Z,7.88
2019-03-16T01:34:02.490Z,7.83
2019-03-16T01:36:35.335Z,7.78
2019-03-16T01:39:08.594Z,7.76
2019-03-16T01:41:41.864Z,7.72
2019-03-16T01:44:16.590Z,7.67
2019-03-16T01:46:48.955Z,7.66
2019-03-16T01:49:21.236Z,7.65
2019-03-16T01:51:55.786Z,7.67
2019-03-16T01:54:28.054Z,7.66
2019-03-16T01:57:00.524Z,7.66
2019-03-16T01:59:33.225Z,7.63
2019-03-16T02:02:05.780Z,7.61
2019-03-16T02:04:40.221Z,7.62
2019-03-16T02:07:13.034Z,7.61
2019-03-16T02:09:45.387Z,7.57
2019-03-16T02:12:17.714Z,7.54
2019-03-16T02:14:50.483Z,7.51
2019-03-16T02:17:22.830Z,7.47
2019-03-16T02:19:55.161Z,7.43
2019-03-16T02:22:28.710Z,7.44
2019-03-16T02:25:00.967Z,7.48
2019-03-16T02:27:34.071Z,7.47
2019-03-16T02:30:07.996Z,7.46
2019-03-16T02:32:44.000Z,7.46
2019-03-16T02:35:16.321Z,7.47
2019-03-16T02:37:49.007Z,7.49
2019-03-16T02:40:21.321Z,7.48
2019-03-16T02:42:53.635Z,7.46
2019-03-16T02:45:27.948Z,7.44
2019-03-16T02:48:01.257Z,7.41
2019-03-16T02:50:33.547Z,7.37
2019-03-16T02:53:06.394Z,7.33
2019-03-16T02:55:38.740Z,7.29
2019-03-16T02:58:11.115Z,7.25
2019-03-16T03:00:43.877Z,7.26
2019-03-16T03:03:28.735Z,7.23
2019-03-16T03:06:03.773Z,7.20
2019-03-16T03:08:37.355Z,7.16
2019-03-16T03:11:10.124Z,7.16
2019-03-16T03:13:43.005Z,7.14
2019-03-16T03:16:16.506Z,7.12
2019-03-16T03:18:50.123Z,7.11
2019-03-16T03:21:22.716Z,7.09
2019-03-16T03:23:56.126Z,7.10
2019-03-16T03:26:28.411Z,7.12
2019-03-16T03:29:00.745Z,7.11
2019-03-16T03:31:33.529Z,7.11
2019-03-16T03:34:05.926Z,7.11
2019-03-16T03:36:38.365Z,7.09
2019-03-16T03:39:11.035Z,7.09
2019-03-16T03:41:43.419Z,7.09
2019-03-16T03:44:15.712Z,7.10
2019-03-16T03:46:49.435Z,7.10
2019-03-16T03:49:21.796Z,7.11
2019-03-16T03:51:54.049Z,7.10
2019-03-16T03:54:26.753Z,7.10
2019-03-16T03:57:01.968Z,7.11
2019-03-16T03:59:34.347Z,7.12
2019-03-16T04:02:07.234Z,7.14
2019-03-16T04:04:39.633Z,7.15
2019-03-16T04:07:11.996Z,7.19
2019-03-16T04:09:45.638Z,7.24
2019-03-16T04:12:17.952Z,7.25
2019-03-16T04:14:50.255Z,7.27
2019-03-16T04:17:22.913Z,7.29
2019-03-16T04:19:55.271Z,7.31
2019-03-16T04:22:27.578Z,7.33
2019-03-16T04:25:00.474Z,7.34
2019-03-16T04:27:32.845Z,7.35
2019-03-16T04:30:07.226Z,7.35
2019-03-16T04:32:40.713Z,7.35
2019-03-16T04:35:14.038Z,7.35
2019-03-16T04:37:46.396Z,7.36
2019-03-16T04:40:19.221Z,7.37
2019-03-16T04:42:51.508Z,7.39
2019-03-16T04:45:23.817Z,7.40
2019-03-16T04:47:56.526Z,7.41
2019-03-16T04:50:28.854Z,7.43
2019-03-16T04:53:01.171Z,7.44
2019-03-16T04:55:34.001Z,7.46
2019-03-16T04:58:06.281Z,7.47
2019-03-16T05:00:38.621Z,7.49
2019-03-16T05:03:11.306Z,7.50
2019-03-16T05:05:43.620Z,7.50
2019-03-16T05:08:15.920Z,7.50
2019-03-16T05:10:48.857Z,7.52
2019-03-16T05:13:21.118Z,7.52
2019-03-16T05:15:53.512Z,7.53
2019-03-16T05:18:26.126Z,7.54
2019-03-16T05:20:58.499Z,7.55
2019-03-16T05:23:30.872Z,7.55
2019-03-16T05:26:03.754Z,7.56
2019-03-16T05:28:36.049Z,7.57
2019-03-16T05:31:08.420Z,7.56
2019-03-16T05:33:41.402Z,7.55
2019-03-16T05:36:13.836Z,7.55
2019-03-16T05:38:47.551Z,7.54
2019-03-16T05:41:20.449Z,7.54
2019-03-16T05:43:52.848Z,7.54
2019-03-16T05:46:25.171Z,7.54
2019-03-16T05:48:57.874Z,7.53
2019-03-16T05:51:30.285Z,7.54
2019-03-16T05:54:02.647Z,7.52
2019-03-16T05:56:35.962Z,7.52
2019-03-16T05:59:08.287Z,7.52
2019-03-16T06:01:42.375Z,7.51
2019-03-16T06:04:15.167Z,7.51
2019-03-16T06:06:48.244Z,7.52
2019-03-16T06:09:20.556Z,7.51
2019-03-16T06:11:53.256Z,7.51
2019-03-16T06:14:25.643Z,7.52
2019-03-16T06:16:57.994Z,7.52
2019-03-16T06:19:30.665Z,7.53
2019-03-16T06:22:03.123Z,7.54
2019-03-16T06:24:39.697Z,7.53
2019-03-16T06:27:12.651Z,7.54
2019-03-16T06:29:44.904Z,7.53
2019-03-16T06:32:17.324Z,7.53
2019-03-16T06:34:53.471Z,7.53
2019-03-16T06:37:27.766Z,7.53
2019-03-16T06:40:01.111Z,7.53
2019-03-16T06:42:34.593Z,7.53
2019-03-16T06:45:08.220Z,7.54
2019-03-16T06:47:40.838Z,7.54
2019-03-16T06:50:14.751Z,7.55
2019-03-16T06:52:48.278Z,7.54
2019-03-16T06:55:20.690Z,7.55
2019-03-16T06:57:53.576Z,7.56
2019-03-16T07:00:25.932Z,7.55
2019-03-16T07:02:58.207Z,7.55
2019-03-16T07:05:38.826Z,7.57
2019-03-16T07:08:11.585Z,7.61
2019-03-16T07:10:44.167Z,7.67
2019-03-16T07:13:17.023Z,7.75
2019-03-16T07:15:50.018Z,7.87
2019-03-16T07:18:22.454Z,7.98
2019-03-16T07:20:55.314Z,8.07
2019-03-16T07:23:28.807Z,8.12
2019-03-16T07:26:13.758Z,8.19
2019-03-16T07:28:47.844Z,8.28
2019-03-16T07:31:20.195Z,8.43
2019-03-16T07:33:52.649Z,8.55
2019-03-16T07:36:28.299Z,8.64
2019-03-16T07:39:00.810Z,8.73
2019-03-16T07:41:33.307Z,8.81
2019-03-16T07:44:06.117Z,8.89
2019-03-16T07:46:38.567Z,8.98
2019-03-16T07:49:12.182Z,9.08
2019-03-16T07:51:44.680Z,9.21
2019-03-16T07:54:17.342Z,9.32
2019-03-16T07:56:49.750Z,9.46
2019-03-16T07:59:22.151Z,9.54
2019-03-16T08:01:54.928Z,9.64
2019-03-16T08:04:27.276Z,9.69
2019-03-16T08:07:00.382Z,9.80
2019-03-16T08:09:33.898Z,9.87
2019-03-16T08:12:06.204Z,9.94
2019-03-16T08:14:40.569Z,10.01
2019-03-16T08:17:14.347Z,10.04
2019-03-16T08:19:47.848Z,10.04
2019-03-16T08:22:21.008Z,10.03
2019-03-16T08:24:54.397Z,10.02
2019-03-16T08:27:26.747Z,10.01
2019-03-16T08:30:01.337Z,10.01
2019-03-16T08:32:34.992Z,10.00
2019-03-16T08:35:09.913Z,10.00
2019-03-16T08:37:44.999Z,9.98
2019-03-16T08:40:19.348Z,9.94
2019-03-16T08:42:51.880Z,9.91
2019-03-16T08:45:25.922Z,9.92
2019-03-16T08:47:58.686Z,9.96
2019-03-16T08:50:34.155Z,9.96
2019-03-16T08:53:06.851Z,9.98
2019-03-16T08:55:39.293Z,10.03
2019-03-16T08:58:12.636Z,10.05
2019-03-16T09:00:46.365Z,10.09
2019-03-16T09:03:19.540Z,10.05
2019-03-16T09:05:54.811Z,10.01
2019-03-16T09:08:28.882Z,9.98
2019-03-16T09:11:02.372Z,9.95
2019-03-16T09:13:34.875Z,9.92
2019-03-16T09:16:09.417Z,9.95
2019-03-16T09:18:41.836Z,9.96
2019-03-16T09:21:15.211Z,10.01
2019-03-16T09:23:51.132Z,10.02
2019-03-16T09:26:23.648Z,10.04
2019-03-16T09:29:00.277Z,10.03
2019-03-16T09:31:34.038Z,10.03
2019-03-16T09:34:07.561Z,10.04
2019-03-16T09:36:40.161Z,10.07
2019-03-16T09:39:12.688Z,10.10
2019-03-16T09:41:49.208Z,10.15
2019-03-16T09:44:21.699Z,10.21
2019-03-16T09:46:55.292Z,10.27
2019-03-16T09:49:29.968Z,10.31
2019-03-16T09:52:23.325Z,10.37
2019-03-16T09:54:57.852Z,10.52
2019-03-16T09:57:33.161Z,10.66
2019-03-16T10:00:12.274Z,10.76
2019-03-16T10:02:44.855Z,10.87
2019-03-16T10:05:17.706Z,10.96
2019-03-16T10:07:50.170Z,10.97
2019-03-16T10:10:23.232Z,11.00
2019-03-16T10:12:59.995Z,11.04
2019-03-16T10:15:34.393Z,11.05
2019-03-16T10:18:06.911Z,11.05
2019-03-16T10:20:39.887Z,11.04
2019-03-16T10:23:15.500Z,11.05
2019-03-16T10:25:49.448Z,11.09
2019-03-16T10:28:23.933Z,11.18
2019-03-16T10:30:57.742Z,11.28
2019-03-16T10:33:31.706Z,11.33
2019-03-16T10:36:09.714Z,11.34
2019-03-16T10:38:43.176Z,11.32
2019-03-16T10:41:17.536Z,11.32
2019-03-16T10:43:51.824Z,11.31
2019-03-16T10:46:28.319Z,11.35
2019-03-16T10:49:00.688Z,11.42
2019-03-16T10:51:34.041Z,11.50
2019-03-16T10:54:06.445Z,11.60
2019-03-16T10:56:40.269Z,11.63
2019-03-16T10:59:16.372Z,11.53
2019-03-16T11:01:48.787Z,11.43
2019-03-16T11:04:22.194Z,11.36
2019-03-16T11:06:55.017Z,11.31
2019-03-16T11:09:28.312Z,11.28
2019-03-16T11:12:00.808Z,11.28
2019-03-16T11:14:35.544Z,11.34
2019-03-16T11:17:10.231Z,11.43
2019-03-16T11:19:43.567Z,11.50
2019-03-16T11:22:17.406Z,11.53
2019-03-16T11:24:51.846Z,11.51
2019-03-16T11:27:27.992Z,11.46
2019-03-16T11:30:03.155Z,11.45
2019-03-16T11:32:35.481Z,11.42
2019-03-16T11:35:09.964Z,11.39
2019-03-16T11:37:44.094Z,11.39
2019-03-16T11:40:17.377Z,11.38
2019-03-16T11:42:51.087Z,11.37
2019-03-16T11:45:24.482Z,11.37
2019-03-16T11:47:59.123Z,11.36
2019-03-16T11:50:34.509Z,11.38
2019-03-16T11:53:09.702Z,11.39
2019-03-16T11:55:42.142Z,11.38
2019-03-16T11:58:15.830Z,11.38
2019-03-16T12:00:48.458Z,11.37
2019-03-16T12:03:24.166Z,11.37
2019-03-16T12:05:57.338Z,11.37
2019-03-16T12:08:30.328Z,11.31
2019-03-16T12:11:04.893Z,11.30
2019-03-16T12:13:37.302Z,11.32
2019-03-16T12:16:11.500Z,11.31
2019-03-16T12:18:44.134Z,11.34
2019-03-16T12:21:17.191Z,11.35
2019-03-16T12:23:50.183Z,11.31
2019-03-16T12:26:23.801Z,11.28
2019-03-16T12:28:56.119Z,11.26
2019-03-16T12:31:28.605Z,11.25
2019-03-16T12:34:01.027Z,11.25
2019-03-16T12:36:35.220Z,11.24
2019-03-16T12:39:11.283Z,11.26
2019-03-16T12:41:44.544Z,11.28
2019-03-16T12:44:18.983Z,11.30
2019-03-16T12:46:53.636Z,11.36
2019-03-16T12:49:28.476Z,11.40
2019-03-16T12:52:01.836Z,11.41
2019-03-16T12:54:34.774Z,11.39
2019-03-16T12:57:08.178Z,11.33
2019-03-16T12:59:47.138Z,11.27
2019-03-16T13:02:21.375Z,11.18
2019-03-16T13:04:55.433Z,11.16
2019-03-16T13:07:31.710Z,11.14
2019-03-16T13:10:13.636Z,11.18
2019-03-16T13:12:49.187Z,11.21
2019-03-16T13:15:24.069Z,11.23
2019-03-16T13:18:00.123Z,11.21
2019-03-16T13:20:33.310Z,11.22
2019-03-16T13:23:05.919Z,11.21
2019-03-16T13:25:40.950Z,11.26
2019-03-16T13:28:15.289Z,11.31
2019-03-16T13:30:47.622Z,11.34
2019-03-16T13:33:22.176Z,11.36
2019-03-16T13:35:55.239Z,11.39
2019-03-16T13:38:27.725Z,11.41
2019-03-16T13:41:01.270Z,11.39
2019-03-16T13:43:34.421Z,11.38
2019-03-16T13:46:08.251Z,11.38
2019-03-16T13:48:42.853Z,11.43
2019-03-16T13:51:16.103Z,11.43
2019-03-16T13:53:48.633Z,11.40
2019-03-16T13:56:22.631Z,11.39
2019-03-16T13:58:55.378Z,11.34
2019-03-16T14:01:27.780Z,11.31
2019-03-16T14:04:03.039Z,11.29
2019-03-16T14:06:39.022Z,11.27
2019-03-16T14:09:14.686Z,11.25
2019-03-16T14:11:50.041Z,11.25
2019-03-16T14:14:23.388Z,11.23
2019-03-16T14:16:56.691Z,11.23
2019-03-16T14:19:30.036Z,11.23
2019-03-16T14:22:06.116Z,11.22
2019-03-16T14:24:40.295Z,11.21
2019-03-16T14:27:14.871Z,11.24
2019-03-16T14:29:48.278Z,11.26
2019-03-16T14:32:20.757Z,11.27
2019-03-16T14:34:53.983Z,11.28
2019-03-16T14:37:27.056Z,11.30
2019-03-16T14:40:00.602Z,11.35
2019-03-16T14:42:34.794Z,11.40
2019-03-16T14:45:09.742Z,11.41
2019-03-16T14:47:45.257Z,11.39
2019-03-16T14:50:18.432Z,11.36
2019-03-16T14:52:53.350Z,11.35
2019-03-16T14:55:27.294Z,11.35
2019-03-16T14:57:59.692Z,11.37
2019-03-16T15:00:38.525Z,11.39
2019-03-16T15:03:12.293Z,11.38
2019-03-16T15:05:46.091Z,11.37
2019-03-16T15:08:22.392Z,11.36
2019-03-16T15:10:55.784Z,11.32
2019-03-16T15:13:30.088Z,11.35
2019-03-16T15:16:03.882Z,11.38
2019-03-16T15:18:37.913Z,11.44
2019-03-16T15:21:13.439Z,11.46
2019-03-16T15:23:46.951Z,11.51
2019-03-16T15:26:19.415Z,11.57
2019-03-16T15:28:55.089Z,11.68
2019-03-16T15:31:28.358Z,11.84
2019-03-16T15:34:00.733Z,11.89
2019-03-16T15:36:33.363Z,11.87
2019-03-16T15:39:09.280Z,11.81
2019-03-16T15:41:44.530Z,11.70
2019-03-16T15:44:18.458Z,11.62
2019-03-16T15:46:50.882Z,11.61
2019-03-16T15:49:23.287Z,11.60
2019-03-16T15:51:55.793Z,11.58
2019-03-16T15:54:29.416Z,11.57
2019-03-16T15:57:03.506Z,11.55
2019-03-16T15:59:36.831Z,11.52
2019-03-16T16:02:11.296Z,11.51
2019-03-16T16:04:44.782Z,11.45
2019-03-16T16:07:27.684Z,11.41
2019-03-16T16:10:01.297Z,11.42
2019-03-16T16:12:34.077Z,11.42
2019-03-16T16:15:09.048Z,11.40
2019-03-16T16:17:42.937Z,11.39
2019-03-16T16:20:15.339Z,11.39
2019-03-16T16:22:48.162Z,11.40
2019-03-16T16:25:19.891Z,11.39
2019-03-16T16:27:52.418Z,11.37
2019-03-16T16:30:26.100Z,11.37
2019-03-16T16:32:58.567Z,11.34
2019-03-16T16:35:31.961Z,11.33
2019-03-16T16:38:06.780Z,11.32
2019-03-16T16:40:40.772Z,11.32
2019-03-16T16:43:15.851Z,11.33
2019-03-16T16:45:52.743Z,11.34
2019-03-16T16:48:26.793Z,11.38
2019-03-16T16:51:01.918Z,11.37
2019-03-16T16:53:36.431Z,11.33
2019-03-16T16:56:13.824Z,11.30
2019-03-16T16:58:49.187Z,11.28
2019-03-16T17:01:29.609Z,11.24
2019-03-16T17:04:06.449Z,11.25
2019-03-16T17:06:39.303Z,11.25
2019-03-16T17:09:18.802Z,11.25
2019-03-16T17:11:51.279Z,11.22
2019-03-16T17:14:26.614Z,11.22
2019-03-16T17:17:10.838Z,11.20
2019-03-16T17:19:44.803Z,11.20
2019-03-16T17:22:18.674Z,11.21
2019-03-16T17:24:55.456Z,11.18
2019-03-16T17:27:28.536Z,11.21
2019-03-16T17:30:13.587Z,11.21
2019-03-16T17:32:47.004Z,11.17
2019-03-16T17:35:21.250Z,11.12
2019-03-16T17:37:56.324Z,11.13
2019-03-16T17:40:30.576Z,11.13
2019-03-16T17:43:03.718Z,11.10
2019-03-16T17:45:37.306Z,11.10
2019-03-16T17:48:09.898Z,11.07
2019-03-16T17:50:42.408Z,11.08
2019-03-16T17:53:16.249Z,11.09
2019-03-16T17:55:48.641Z,11.08
2019-03-16T17:58:21.115Z,11.06
2019-03-16T18:01:02.579Z,11.09
2019-03-16T18:03:36.049Z,11.13
2019-03-16T18:06:14.480Z,11.13
2019-03-16T18:08:49.380Z,11.11
2019-03-16T18:11:25.665Z,11.11
2019-03-16T18:13:58.793Z,11.10
2019-03-16T18:16:31.163Z,11.09
2019-03-16T18:19:04.304Z,11.08
2019-03-16T18:21:37.410Z,11.08
2019-03-16T18:24:10.932Z,11.12
2019-03-16T18:26:43.963Z,11.12
2019-03-16T18:29:16.851Z,11.12
2019-03-16T18:31:49.789Z,11.11
2019-03-16T18:34:22.145Z,11.09
2019-03-16T18:36:55.757Z,11.10
2019-03-16T18:39:30.359Z,11.13
2019-03-16T18:42:04.497Z,11.18
2019-03-16T18:44:37.279Z,11.15
2019-03-16T18:47:11.395Z,11.13
2019-03-16T18:49:46.455Z,11.12
2019-03-16T18:52:25.786Z,11.13
2019-03-16T18:54:59.064Z,11.14
2019-03-16T18:57:35.989Z,11.10
2019-03-16T19:00:13.518Z,11.10
2019-03-16T19:02:47.431Z,11.11
2019-03-16T19:05:21.167Z,11.10
2019-03-16T19:08:01.865Z,11.06
2019-03-16T19:10:36.181Z,11.07
2019-03-16T19:13:10.400Z,11.03
2019-03-16T19:15:42.952Z,11.01
2019-03-16T19:18:17.794Z,11.01
2019-03-16T19:20:55.096Z,11.01
2019-03-16T19:23:29.082Z,11.00
2019-03-16T19:26:01.568Z,10.96
2019-03-16T19:28:36.315Z,10.94
2019-03-16T19:31:09.836Z,10.95
2019-03-16T19:33:43.466Z,10.96
2019-03-16T19:36:16.620Z,10.95
2019-03-16T19:38:51.583Z,11.04
2019-03-16T19:41:26.123Z,11.00
2019-03-16T19:44:04.281Z,10.94
2019-03-16T19:46:38.683Z,10.91
2019-03-16T19:49:12.936Z,10.88
2019-03-16T19:51:46.371Z,10.88
2019-03-16T19:54:20.175Z,10.85
2019-03-16T19:56:52.741Z,10.83
2019-03-16T19:59:25.731Z,10.82
2019-03-16T20:01:58.202Z,10.80
2019-03-16T20:04:36.322Z,10.78
2019-03-16T20:07:19.184Z,10.76
2019-03-16T20:09:56.578Z,10.78
2019-03-16T20:12:31.626Z,10.77
2019-03-16T20:15:08.739Z,10.75
2019-03-16T20:17:46.066Z,10.74
2019-03-16T20:20:18.581Z,10.72
2019-03-16T20:22:53.080Z,10.74
2019-03-16T20:25:31.877Z,10.74
2019-03-16T20:28:05.985Z,10.72
2019-03-16T20:30:40.836Z,10.70
2019-03-16T20:33:15.219Z,10.70
2019-03-16T20:35:47.666Z,10.67
2019-03-16T20:38:25.913Z,10.66
2019-03-16T20:41:00.011Z,10.64
2019-03-16T20:43:34.734Z,10.62
2019-03-16T20:46:09.476Z,10.59
2019-03-16T20:48:42.392Z,10.58
2019-03-16T20:51:15.430Z,10.56
2019-03-16T20:53:49.076Z,10.54
2019-03-16T20:56:21.508Z,10.53
2019-03-16T20:58:55.137Z,10.56
2019-03-16T21:01:29.036Z,10.59
2019-03-16T21:04:07.943Z,10.59
2019-03-16T21:06:47.226Z,10.57
2019-03-16T21:09:25.570Z,10.53
2019-03-16T21:11:59.599Z,10.51
2019-03-16T21:14:33.091Z,10.47
2019-03-16T21:17:07.415Z,10.47
2019-03-16T21:19:42.524Z,10.46
2019-03-16T21:22:14.997Z,10.48
2019-03-16T21:24:47.426Z,10.46
2019-03-16T21:27:20.247Z,10.45
2019-03-16T21:29:52.811Z,10.45
2019-03-16T21:32:26.074Z,10.47
2019-03-16T21:34:58.531Z,10.46
2019-03-16T21:37:32.620Z,10.49
2019-03-16T21:40:06.037Z,10.51
2019-03-16T21:42:38.536Z,10.51
2019-03-16T21:45:15.536Z,10.51
2019-03-16T21:48:00.054Z,10.52
2019-03-16T21:50:35.395Z,10.49
2019-03-16T21:53:10.737Z,10.46
2019-03-16T21:55:43.777Z,10.43
2019-03-16T21:58:18.884Z,10.42
2019-03-16T22:00:59.498Z,10.41
2019-03-16T22:03:41.536Z,10.41
2019-03-16T22:06:16.955Z,10.41
2019-03-16T22:08:50.927Z,10.41
2019-03-16T22:11:25.247Z,10.41
2019-03-16T22:13:59.313Z,10.42
2019-03-16T22:16:33.967Z,10.41
2019-03-16T22:19:07.895Z,10.44
2019-03-16T22:21:41.141Z,10.44
2019-03-16T22:24:13.583Z,10.44
2019-03-16T22:26:46.842Z,10.45
2019-03-16T22:29:23.109Z,10.46
2019-03-16T22:32:00.437Z,10.44
2019-03-16T22:34:33.475Z,10.44
2019-03-16T22:37:07.669Z,10.44
2019-03-16T22:39:41.520Z,10.43
2019-03-16T22:42:16.153Z,10.41
2019-03-16T22:44:50.323Z,10.40
2019-03-16T22:47:23.848Z,10.40
2019-03-16T22:49:59.921Z,10.39
2019-03-16T22:52:32.331Z,10.37
2019-03-16T22:55:05.604Z,10.37
2019-03-16T22:57:39.683Z,10.36
2019-03-16T23:00:15.237Z,10.35
2019-03-16T23:02:47.639Z,10.37
2019-03-16T23:05:20.142Z,10.39
2019-03-16T23:07:53.937Z,10.39
2019-03-16T23:10:28.300Z,10.42
2019-03-16T23:13:00.723Z,10.44
2019-03-16T23:15:35.061Z,10.49
2019-03-16T23:18:08.290Z,10.55
2019-03-16T23:20:40.768Z,10.59
2019-03-16T23:23:14.086Z,10.65
2019-03-16T23:25:48.262Z,10.70
2019-03-16T23:28:22.113Z,10.74
2019-03-16T23:30:54.891Z,10.79
2019-03-16T23:33:28.010Z,10.84
2019-03-16T23:36:07.978Z,10.87
2019-03-16T23:38:43.866Z,10.90
2019-03-16T23:41:16.828Z,10.97
2019-03-16T23:43:51.987Z,10.98
2019-03-16T23:46:27.806Z,11.02
2019-03-16T23:49:04.947Z,11.02
2019-03-16T23:51:39.567Z,11.02
2019-03-16T23:54:12.521Z,11.07
2019-03-16T23:56:45.291Z,11.06
2019-03-16T23:59:20.584Z,11.09
